sensor_id;sensor_type;location;lat;lon;timestamp;temperature;humidity
21031;DHT22;61072;47.808;7.636;2022-08-24T00:02:06;20.80;99.90
21031;DHT22;61072;47.808;7.636;2022-08-24T00:04:37;20.80;99.90
21031;DHT22;61072;47.808;7.636;2022-08-24T00:07:05;21.10;99.90
21031;DHT22;61072;47.808;7.636;2022-08-24T00:09:47;20.80;99.90
21031;DHT22;61072;47.808;7.636;2022-08-24T00:12:16;20.70;99.90
21031;DHT22;61072;47.808;7.636;2022-08-24T00:14:43;20.60;99.90
21031;DHT22;61072;47.808;7.636;2022-08-24T00:17:10;20.60;99.90
21031;DHT22;61072;47.808;7.636;2022-08-24T00:19:38;20.60;99.90
21031;DHT22;61072;47.808;7.636;2022-08-24T00:22:05;20.60;99.90
21031;DHT22;61072;47.808;7.636;2022-08-24T00:24:31;20.60;99.90
21031;DHT22;61072;47.808;7.636;2022-08-24T00:26:59;20.70;99.90
21031;DHT22;61072;47.808;7.636;2022-08-24T00:29:26;20.70;99.90
21031;DHT22;61072;47.808;7.636;2022-08-24T00:31:53;20.70;99.90
21031;DHT22;61072;47.808;7.636;2022-08-24T00:34:20;20.70;99.90
21031;DHT22;61072;47.808;7.636;2022-08-24T00:36:47;20.60;99.90
21031;DHT22;61072;47.808;7.636;2022-08-24T00:39:13;20.60;99.90
21031;DHT22;61072;47.808;7.636;2022-08-24T00:41:46;20.60;99.90
21031;DHT22;61072;47.808;7.636;2022-08-24T00:44:13;20.60;99.90
21031;DHT22;61072;47.808;7.636;2022-08-24T00:49:38;20.50;99.90
21031;DHT22;61072;47.808;7.636;2022-08-24T00:52:27;20.40;99.90
21031;DHT22;61072;47.808;7.636;2022-08-24T00:54:59;20.40;99.90
21031;DHT22;61072;47.808;7.636;2022-08-24T00:57:31;20.40;99.90
21031;DHT22;61072;47.808;7.636;2022-08-24T01:00:11;20.40;99.90
21031;DHT22;61072;47.808;7.636;2022-08-24T01:02:41;20.40;99.90
21031;DHT22;61072;47.808;7.636;2022-08-24T01:05:10;20.40;99.90
21031;DHT22;61072;47.808;7.636;2022-08-24T01:07:38;20.30;99.90
21031;DHT22;61072;47.808;7.636;2022-08-24T01:10:14;20.30;99.90
21031;DHT22;61072;47.808;7.636;2022-08-24T01:12:44;20.20;99.90
21031;DHT22;61072;47.808;7.636;2022-08-24T01:15:27;20.20;99.90
21031;DHT22;61072;47.808;7.636;2022-08-24T01:17:55;20.10;99.90
21031;DHT22;61072;47.808;7.636;2022-08-24T01:20:43;20.10;99.90
21031;DHT22;61072;47.808;7.636;2022-08-24T01:23:38;20.10;99.90
21031;DHT22;61072;47.808;7.636;2022-08-24T01:26:09;19.90;99.90
21031;DHT22;61072;47.808;7.636;2022-08-24T01:28:38;20.00;99.90
21031;DHT22;61072;47.808;7.636;2022-08-24T01:31:07;19.90;99.90
21031;DHT22;61072;47.808;7.636;2022-08-24T01:33:34;20.00;99.90
21031;DHT22;61072;47.808;7.636;2022-08-24T01:36:04;19.90;99.90
21031;DHT22;61072;47.808;7.636;2022-08-24T01:38:35;19.90;99.90
21031;DHT22;61072;47.808;7.636;2022-08-24T01:41:03;19.80;99.90
21031;DHT22;61072;47.808;7.636;2022-08-24T01:43:30;19.80;99.90
21031;DHT22;61072;47.808;7.636;2022-08-24T01:46:02;19.70;99.90
21031;DHT22;61072;47.808;7.636;2022-08-24T01:48:29;19.70;99.90
21031;DHT22;61072;47.808;7.636;2022-08-24T01:50:56;19.80;99.90
21031;DHT22;61072;47.808;7.636;2022-08-24T01:53:24;19.80;99.90
21031;DHT22;61072;47.808;7.636;2022-08-24T01:55:50;19.80;99.90
21031;DHT22;61072;47.808;7.636;2022-08-24T01:58:17;19.70;99.90
21031;DHT22;61072;47.808;7.636;2022-08-24T02:00:44;19.70;99.90
21031;DHT22;61072;47.808;7.636;2022-08-24T02:03:11;19.60;99.90
21031;DHT22;61072;47.808;7.636;2022-08-24T02:05:38;19.60;99.90
21031;DHT22;61072;47.808;7.636;2022-08-24T02:08:05;19.60;99.90
21031;DHT22;61072;47.808;7.636;2022-08-24T02:10:32;19.50;99.90
21031;DHT22;61072;47.808;7.636;2022-08-24T02:12:59;19.50;99.90
21031;DHT22;61072;47.808;7.636;2022-08-24T02:15:35;19.50;99.90
21031;DHT22;61072;47.808;7.636;2022-08-24T02:18:07;19.50;99.90
21031;DHT22;61072;47.808;7.636;2022-08-24T02:20:41;19.50;99.90
21031;DHT22;61072;47.808;7.636;2022-08-24T02:23:08;19.40;99.90
21031;DHT22;61072;47.808;7.636;2022-08-24T02:25:35;19.40;99.90
21031;DHT22;61072;47.808;7.636;2022-08-24T02:28:02;19.40;99.90
21031;DHT22;61072;47.808;7.636;2022-08-24T02:30:30;19.40;99.90
21031;DHT22;61072;47.808;7.636;2022-08-24T02:32:58;19.40;99.90
21031;DHT22;61072;47.808;7.636;2022-08-24T02:35:26;19.30;99.90
21031;DHT22;61072;47.808;7.636;2022-08-24T02:37:53;19.30;99.90
21031;DHT22;61072;47.808;7.636;2022-08-24T02:40:20;19.40;99.90
21031;DHT22;61072;47.808;7.636;2022-08-24T02:42:47;19.30;99.90
21031;DHT22;61072;47.808;7.636;2022-08-24T02:45:14;19.30;99.90
21031;DHT22;61072;47.808;7.636;2022-08-24T02:47:41;19.30;99.90
21031;DHT22;61072;47.808;7.636;2022-08-24T02:50:11;19.30;99.90
21031;DHT22;61072;47.808;7.636;2022-08-24T02:52:38;19.30;99.90
21031;DHT22;61072;47.808;7.636;2022-08-24T02:55:09;19.30;99.90
21031;DHT22;61072;47.808;7.636;2022-08-24T02:57:36;19.20;99.90
21031;DHT22;61072;47.808;7.636;2022-08-24T03:00:07;19.20;99.90
21031;DHT22;61072;47.808;7.636;2022-08-24T03:02:36;19.20;99.90
21031;DHT22;61072;47.808;7.636;2022-08-24T03:05:04;19.20;99.90
21031;DHT22;61072;47.808;7.636;2022-08-24T03:07:31;19.20;99.90
21031;DHT22;61072;47.808;7.636;2022-08-24T03:09:57;19.20;99.90
21031;DHT22;61072;47.808;7.636;2022-08-24T03:12:24;19.20;99.90
21031;DHT22;61072;47.808;7.636;2022-08-24T03:14:51;19.20;99.90
21031;DHT22;61072;47.808;7.636;2022-08-24T03:17:17;19.20;99.90
21031;DHT22;61072;47.808;7.636;2022-08-24T03:19:44;19.20;99.90
21031;DHT22;61072;47.808;7.636;2022-08-24T03:22:12;19.20;99.90
21031;DHT22;61072;47.808;7.636;2022-08-24T03:24:38;19.20;99.90
21031;DHT22;61072;47.808;7.636;2022-08-24T03:27:05;19.20;99.90
21031;DHT22;61072;47.808;7.636;2022-08-24T03:29:33;19.20;99.90
21031;DHT22;61072;47.808;7.636;2022-08-24T03:32:01;19.10;99.90
21031;DHT22;61072;47.808;7.636;2022-08-24T03:34:28;19.10;99.90
21031;DHT22;61072;47.808;7.636;2022-08-24T03:36:54;19.10;99.90
21031;DHT22;61072;47.808;7.636;2022-08-24T03:39:21;19.20;99.90
21031;DHT22;61072;47.808;7.636;2022-08-24T03:41:48;19.00;99.90
21031;DHT22;61072;47.808;7.636;2022-08-24T03:44:15;19.10;99.90
21031;DHT22;61072;47.808;7.636;2022-08-24T03:46:46;19.00;99.90
21031;DHT22;61072;47.808;7.636;2022-08-24T03:49:13;19.00;99.90
21031;DHT22;61072;47.808;7.636;2022-08-24T03:51:40;18.90;99.90
21031;DHT22;61072;47.808;7.636;2022-08-24T03:54:09;18.90;99.90
21031;DHT22;61072;47.808;7.636;2022-08-24T03:56:36;18.90;99.90
21031;DHT22;61072;47.808;7.636;2022-08-24T03:59:04;18.90;99.90
21031;DHT22;61072;47.808;7.636;2022-08-24T04:01:33;18.90;99.90
21031;DHT22;61072;47.808;7.636;2022-08-24T04:03:59;18.90;99.90
21031;DHT22;61072;47.808;7.636;2022-08-24T04:06:26;18.90;99.90
21031;DHT22;61072;47.808;7.636;2022-08-24T04:08:54;18.90;99.90
21031;DHT22;61072;47.808;7.636;2022-08-24T04:11:24;18.80;99.90
21031;DHT22;61072;47.808;7.636;2022-08-24T04:13:53;18.80;99.90
21031;DHT22;61072;47.808;7.636;2022-08-24T04:16:22;18.70;99.90
21031;DHT22;61072;47.808;7.636;2022-08-24T04:18:50;18.80;99.90
21031;DHT22;61072;47.808;7.636;2022-08-24T04:21:28;18.80;99.90
21031;DHT22;61072;47.808;7.636;2022-08-24T04:23:56;18.80;99.90
21031;DHT22;61072;47.808;7.636;2022-08-24T04:26:24;18.90;99.90
21031;DHT22;61072;47.808;7.636;2022-08-24T04:29:12;18.90;99.90
21031;DHT22;61072;47.808;7.636;2022-08-24T04:31:41;18.80;99.90
21031;DHT22;61072;47.808;7.636;2022-08-24T04:34:09;18.70;99.90
21031;DHT22;61072;47.808;7.636;2022-08-24T04:36:36;18.80;99.90
21031;DHT22;61072;47.808;7.636;2022-08-24T04:39:04;18.80;99.90
21031;DHT22;61072;47.808;7.636;2022-08-24T04:41:31;18.70;99.90
21031;DHT22;61072;47.808;7.636;2022-08-24T04:44:00;18.70;99.90
21031;DHT22;61072;47.808;7.636;2022-08-24T04:46:27;18.60;99.90
21031;DHT22;61072;47.808;7.636;2022-08-24T04:48:55;18.70;99.90
21031;DHT22;61072;47.808;7.636;2022-08-24T04:51:21;18.70;99.90
21031;DHT22;61072;47.808;7.636;2022-08-24T04:53:50;18.70;99.90
21031;DHT22;61072;47.808;7.636;2022-08-24T04:56:22;18.70;99.90
21031;DHT22;61072;47.808;7.636;2022-08-24T04:58:51;18.70;99.90
21031;DHT22;61072;47.808;7.636;2022-08-24T05:01:20;18.70;99.90
21031;DHT22;61072;47.808;7.636;2022-08-24T05:03:49;18.70;99.90
21031;DHT22;61072;47.808;7.636;2022-08-24T05:06:18;18.70;99.90
21031;DHT22;61072;47.808;7.636;2022-08-24T05:08:45;18.70;99.90
21031;DHT22;61072;47.808;7.636;2022-08-24T05:11:14;18.80;99.90
21031;DHT22;61072;47.808;7.636;2022-08-24T05:13:43;18.60;99.90
21031;DHT22;61072;47.808;7.636;2022-08-24T05:16:13;18.60;99.90
21031;DHT22;61072;47.808;7.636;2022-08-24T05:18:40;18.60;99.90
21031;DHT22;61072;47.808;7.636;2022-08-24T05:21:12;18.60;99.90
21031;DHT22;61072;47.808;7.636;2022-08-24T05:23:40;18.60;99.90
21031;DHT22;61072;47.808;7.636;2022-08-24T05:26:15;18.60;99.90
21031;DHT22;61072;47.808;7.636;2022-08-24T05:28:43;18.60;99.90
21031;DHT22;61072;47.808;7.636;2022-08-24T05:31:13;18.70;99.90
21031;DHT22;61072;47.808;7.636;2022-08-24T05:33:40;18.70;99.90
21031;DHT22;61072;47.808;7.636;2022-08-24T05:36:19;18.70;99.90
21031;DHT22;61072;47.808;7.636;2022-08-24T05:38:48;18.70;99.90
21031;DHT22;61072;47.808;7.636;2022-08-24T05:41:16;18.60;99.90
21031;DHT22;61072;47.808;7.636;2022-08-24T05:43:43;18.70;99.90
21031;DHT22;61072;47.808;7.636;2022-08-24T05:46:10;18.70;99.90
21031;DHT22;61072;47.808;7.636;2022-08-24T05:48:37;18.70;99.90
21031;DHT22;61072;47.808;7.636;2022-08-24T05:51:05;18.70;99.90
21031;DHT22;61072;47.808;7.636;2022-08-24T05:53:33;18.70;99.90
21031;DHT22;61072;47.808;7.636;2022-08-24T05:56:05;18.70;99.90
21031;DHT22;61072;47.808;7.636;2022-08-24T05:58:33;18.80;99.90
21031;DHT22;61072;47.808;7.636;2022-08-24T06:01:08;18.80;99.90
21031;DHT22;61072;47.808;7.636;2022-08-24T06:03:37;18.90;99.90
21031;DHT22;61072;47.808;7.636;2022-08-24T06:06:05;19.00;99.90
21031;DHT22;61072;47.808;7.636;2022-08-24T06:08:38;19.00;99.90
21031;DHT22;61072;47.808;7.636;2022-08-24T06:11:07;19.00;99.90
21031;DHT22;61072;47.808;7.636;2022-08-24T06:13:35;19.10;99.90
21031;DHT22;61072;47.808;7.636;2022-08-24T06:16:08;19.10;99.90
21031;DHT22;61072;47.808;7.636;2022-08-24T06:18:52;19.10;99.90
21031;DHT22;61072;47.808;7.636;2022-08-24T06:21:24;19.10;99.90
21031;DHT22;61072;47.808;7.636;2022-08-24T06:23:54;19.20;99.90
21031;DHT22;61072;47.808;7.636;2022-08-24T06:26:21;19.20;99.90
21031;DHT22;61072;47.808;7.636;2022-08-24T06:29:07;19.30;99.90
21031;DHT22;61072;47.808;7.636;2022-08-24T06:31:38;19.30;99.90
21031;DHT22;61072;47.808;7.636;2022-08-24T06:34:08;19.30;99.90
21031;DHT22;61072;47.808;7.636;2022-08-24T06:36:35;19.40;99.90
21031;DHT22;61072;47.808;7.636;2022-08-24T06:39:05;19.40;99.90
21031;DHT22;61072;47.808;7.636;2022-08-24T06:41:34;19.50;99.90
21031;DHT22;61072;47.808;7.636;2022-08-24T06:44:02;19.50;99.90
21031;DHT22;61072;47.808;7.636;2022-08-24T06:46:28;19.50;99.90
21031;DHT22;61072;47.808;7.636;2022-08-24T06:48:59;19.60;99.90
21031;DHT22;61072;47.808;7.636;2022-08-24T06:51:25;19.60;99.90
21031;DHT22;61072;47.808;7.636;2022-08-24T06:53:53;19.70;99.90
21031;DHT22;61072;47.808;7.636;2022-08-24T06:56:21;19.70;99.90
21031;DHT22;61072;47.808;7.636;2022-08-24T06:58:48;19.80;99.90
21031;DHT22;61072;47.808;7.636;2022-08-24T07:01:18;19.80;99.90
21031;DHT22;61072;47.808;7.636;2022-08-24T07:03:45;19.90;99.90
21031;DHT22;61072;47.808;7.636;2022-08-24T07:06:13;19.90;99.90
21031;DHT22;61072;47.808;7.636;2022-08-24T07:08:42;20.00;99.90
21031;DHT22;61072;47.808;7.636;2022-08-24T07:11:09;20.00;99.90
21031;DHT22;61072;47.808;7.636;2022-08-24T07:13:36;20.10;99.90
21031;DHT22;61072;47.808;7.636;2022-08-24T07:16:04;20.10;99.90
21031;DHT22;61072;47.808;7.636;2022-08-24T07:18:31;20.20;99.90
21031;DHT22;61072;47.808;7.636;2022-08-24T07:21:02;20.20;99.90
21031;DHT22;61072;47.808;7.636;2022-08-24T07:23:29;20.30;99.90
21031;DHT22;61072;47.808;7.636;2022-08-24T07:26:13;20.30;99.90
21031;DHT22;61072;47.808;7.636;2022-08-24T07:28:54;20.40;99.90
21031;DHT22;61072;47.808;7.636;2022-08-24T07:31:24;20.40;99.90
21031;DHT22;61072;47.808;7.636;2022-08-24T07:33:52;20.50;99.90
21031;DHT22;61072;47.808;7.636;2022-08-24T07:36:18;20.50;99.90
21031;DHT22;61072;47.808;7.636;2022-08-24T07:38:49;20.60;99.90
21031;DHT22;61072;47.808;7.636;2022-08-24T07:41:18;20.60;99.90
21031;DHT22;61072;47.808;7.636;2022-08-24T07:44:06;20.60;99.90
21031;DHT22;61072;47.808;7.636;2022-08-24T07:46:34;20.60;99.90
21031;DHT22;61072;47.808;7.636;2022-08-24T07:49:01;20.70;99.90
21031;DHT22;61072;47.808;7.636;2022-08-24T07:51:37;20.70;99.90
21031;DHT22;61072;47.808;7.636;2022-08-24T07:54:10;20.80;99.90
21031;DHT22;61072;47.808;7.636;2022-08-24T07:56:39;20.80;99.90
21031;DHT22;61072;47.808;7.636;2022-08-24T07:59:05;20.90;99.90
21031;DHT22;61072;47.808;7.636;2022-08-24T08:01:38;20.90;99.90
21031;DHT22;61072;47.808;7.636;2022-08-24T08:04:05;21.00;99.90
21031;DHT22;61072;47.808;7.636;2022-08-24T08:06:32;21.00;99.90
21031;DHT22;61072;47.808;7.636;2022-08-24T08:08:58;21.10;99.90
21031;DHT22;61072;47.808;7.636;2022-08-24T08:11:25;21.10;99.90
21031;DHT22;61072;47.808;7.636;2022-08-24T08:13:52;21.10;99.90
21031;DHT22;61072;47.808;7.636;2022-08-24T08:16:19;21.20;99.90
21031;DHT22;61072;47.808;7.636;2022-08-24T08:18:47;21.30;99.90
21031;DHT22;61072;47.808;7.636;2022-08-24T08:21:31;21.30;99.90
21031;DHT22;61072;47.808;7.636;2022-08-24T08:24:16;21.40;99.90
21031;DHT22;61072;47.808;7.636;2022-08-24T08:26:47;21.40;99.90
21031;DHT22;61072;47.808;7.636;2022-08-24T08:29:18;21.50;99.90
21031;DHT22;61072;47.808;7.636;2022-08-24T08:31:45;21.60;99.90
21031;DHT22;61072;47.808;7.636;2022-08-24T08:34:13;21.50;99.90
21031;DHT22;61072;47.808;7.636;2022-08-24T08:36:40;21.60;99.90
21031;DHT22;61072;47.808;7.636;2022-08-24T08:39:09;21.70;99.90
21031;DHT22;61072;47.808;7.636;2022-08-24T08:41:41;21.70;99.90
21031;DHT22;61072;47.808;7.636;2022-08-24T08:50:03;21.90;99.90
21031;DHT22;61072;47.808;7.636;2022-08-24T08:53:01;21.90;99.90
21031;DHT22;61072;47.808;7.636;2022-08-24T08:58:52;22.10;99.90
21031;DHT22;61072;47.808;7.636;2022-08-24T09:04:53;22.20;99.90
21031;DHT22;61072;47.808;7.636;2022-08-24T09:13:27;22.30;99.90
21031;DHT22;61072;47.808;7.636;2022-08-24T09:16:27;22.40;99.90
21031;DHT22;61072;47.808;7.636;2022-08-24T09:22:13;22.50;99.90
21031;DHT22;61072;47.808;7.636;2022-08-24T09:24:55;22.50;99.90
21031;DHT22;61072;47.808;7.636;2022-08-24T09:30:13;22.70;99.90
21031;DHT22;61072;47.808;7.636;2022-08-24T09:35:38;22.80;99.90
21031;DHT22;61072;47.808;7.636;2022-08-24T09:50:11;23.10;99.90
21031;DHT22;61072;47.808;7.636;2022-08-24T10:06:12;23.60;99.90
21031;DHT22;61072;47.808;7.636;2022-08-24T10:09:10;23.60;99.90
21031;DHT22;61072;47.808;7.636;2022-08-24T10:11:59;23.70;99.90
21031;DHT22;61072;47.808;7.636;2022-08-24T10:23:14;24.00;99.90
21031;DHT22;61072;47.808;7.636;2022-08-24T10:31:17;24.20;99.90
21031;DHT22;61072;47.808;7.636;2022-08-24T10:54:20;24.80;99.90
21031;DHT22;61072;47.808;7.636;2022-08-24T10:57:07;25.00;99.90
21031;DHT22;61072;47.808;7.636;2022-08-24T11:00:07;25.00;99.90
21031;DHT22;61072;47.808;7.636;2022-08-24T11:02:49;25.10;99.90
21031;DHT22;61072;47.808;7.636;2022-08-24T11:05:39;25.30;99.90
21031;DHT22;61072;47.808;7.636;2022-08-24T11:08:07;25.40;99.90
21031;DHT22;61072;47.808;7.636;2022-08-24T11:10:38;25.40;99.90
21031;DHT22;61072;47.808;7.636;2022-08-24T11:13:24;25.40;99.90
21031;DHT22;61072;47.808;7.636;2022-08-24T11:15:53;25.50;99.90
21031;DHT22;61072;47.808;7.636;2022-08-24T11:18:21;25.60;99.90
21031;DHT22;61072;47.808;7.636;2022-08-24T11:20:51;25.70;99.90
21031;DHT22;61072;47.808;7.636;2022-08-24T11:23:23;25.70;99.90
21031;DHT22;61072;47.808;7.636;2022-08-24T11:26:02;25.80;99.90
21031;DHT22;61072;47.808;7.636;2022-08-24T11:28:35;25.80;99.90
21031;DHT22;61072;47.808;7.636;2022-08-24T11:31:10;25.90;99.90
21031;DHT22;61072;47.808;7.636;2022-08-24T11:33:46;26.00;99.90
21031;DHT22;61072;47.808;7.636;2022-08-24T11:36:21;26.10;99.90
21031;DHT22;61072;47.808;7.636;2022-08-24T11:42:31;26.20;99.90
21031;DHT22;61072;47.808;7.636;2022-08-24T11:55:57;26.50;99.90
21031;DHT22;61072;47.808;7.636;2022-08-24T11:58:48;26.50;99.90
21031;DHT22;61072;47.808;7.636;2022-08-24T12:01:33;26.60;99.90
21031;DHT22;61072;47.808;7.636;2022-08-24T12:07:16;26.80;99.90
21031;DHT22;61072;47.808;7.636;2022-08-24T12:09:55;27.10;99.90
21031;DHT22;61072;47.808;7.636;2022-08-24T12:12:31;27.20;99.90
21031;DHT22;61072;47.808;7.636;2022-08-24T12:15:15;27.20;99.90
21031;DHT22;61072;47.808;7.636;2022-08-24T12:17:57;27.50;99.90
21031;DHT22;61072;47.808;7.636;2022-08-24T12:20:36;27.50;99.90
21031;DHT22;61072;47.808;7.636;2022-08-24T12:23:18;27.50;99.90
21031;DHT22;61072;47.808;7.636;2022-08-24T12:25:51;27.50;99.90
21031;DHT22;61072;47.808;7.636;2022-08-24T12:28:46;27.50;99.90
21031;DHT22;61072;47.808;7.636;2022-08-24T12:34:08;27.60;99.90
21031;DHT22;61072;47.808;7.636;2022-08-24T12:36:50;27.60;99.90
21031;DHT22;61072;47.808;7.636;2022-08-24T12:39:21;27.60;99.90
21031;DHT22;61072;47.808;7.636;2022-08-24T12:42:01;27.60;99.90
21031;DHT22;61072;47.808;7.636;2022-08-24T12:44:47;27.60;99.90
21031;DHT22;61072;47.808;7.636;2022-08-24T12:47:30;27.70;99.90
21031;DHT22;61072;47.808;7.636;2022-08-24T12:50:07;27.70;99.90
21031;DHT22;61072;47.808;7.636;2022-08-24T12:55:48;27.70;99.90
21031;DHT22;61072;47.808;7.636;2022-08-24T13:01:22;27.90;99.90
21031;DHT22;61072;47.808;7.636;2022-08-24T13:06:59;27.70;99.90
21031;DHT22;61072;47.808;7.636;2022-08-24T13:09:33;27.70;99.90
21031;DHT22;61072;47.808;7.636;2022-08-24T13:17:45;27.80;99.90
21031;DHT22;61072;47.808;7.636;2022-08-24T13:20:28;27.80;99.90
21031;DHT22;61072;47.808;7.636;2022-08-24T13:25:59;27.90;99.90
21031;DHT22;61072;47.808;7.636;2022-08-24T13:28:44;27.80;99.90
21031;DHT22;61072;47.808;7.636;2022-08-24T13:31:15;27.80;99.90
21031;DHT22;61072;47.808;7.636;2022-08-24T13:45:21;28.10;99.90
21031;DHT22;61072;47.808;7.636;2022-08-24T13:56:28;27.90;99.90
21031;DHT22;61072;47.808;7.636;2022-08-24T14:04:53;28.00;99.90
21031;DHT22;61072;47.808;7.636;2022-08-24T14:07:45;28.00;99.90
21031;DHT22;61072;47.808;7.636;2022-08-24T14:10:38;28.00;99.90
21031;DHT22;61072;47.808;7.636;2022-08-24T14:13:17;27.90;99.90
21031;DHT22;61072;47.808;7.636;2022-08-24T14:19:04;28.10;99.90
21031;DHT22;61072;47.808;7.636;2022-08-24T14:21:40;28.10;99.90
21031;DHT22;61072;47.808;7.636;2022-08-24T14:24:23;28.10;99.90
21031;DHT22;61072;47.808;7.636;2022-08-24T14:26:59;28.10;99.90
21031;DHT22;61072;47.808;7.636;2022-08-24T14:34:41;28.20;99.90
21031;DHT22;61072;47.808;7.636;2022-08-24T14:42:57;28.20;99.90
21031;DHT22;61072;47.808;7.636;2022-08-24T14:48:47;28.20;99.90
21031;DHT22;61072;47.808;7.636;2022-08-24T14:54:22;28.10;99.90
21031;DHT22;61072;47.808;7.636;2022-08-24T14:57:21;28.10;99.90
21031;DHT22;61072;47.808;7.636;2022-08-24T15:05:44;28.10;99.90
21031;DHT22;61072;47.808;7.636;2022-08-24T15:08:37;28.10;99.90
21031;DHT22;61072;47.808;7.636;2022-08-24T15:11:17;28.10;99.90
21031;DHT22;61072;47.808;7.636;2022-08-24T15:13:52;28.10;99.90
21031;DHT22;61072;47.808;7.636;2022-08-24T15:16:46;28.10;99.90
21031;DHT22;61072;47.808;7.636;2022-08-24T15:19:30;28.10;99.90
21031;DHT22;61072;47.808;7.636;2022-08-24T15:22:05;28.10;99.90
21031;DHT22;61072;47.808;7.636;2022-08-24T15:25:03;28.10;99.90
21031;DHT22;61072;47.808;7.636;2022-08-24T15:30:22;28.30;99.90
21031;DHT22;61072;47.808;7.636;2022-08-24T15:33:04;28.30;99.90
21031;DHT22;61072;47.808;7.636;2022-08-24T15:35:34;28.30;99.90
21031;DHT22;61072;47.808;7.636;2022-08-24T15:38:21;28.30;99.90
21031;DHT22;61072;47.808;7.636;2022-08-24T15:41:15;28.30;99.90
21031;DHT22;61072;47.808;7.636;2022-08-24T15:46:14;28.30;99.90
21031;DHT22;61072;47.808;7.636;2022-08-24T15:48:44;28.30;99.90
21031;DHT22;61072;47.808;7.636;2022-08-24T15:51:32;28.30;99.90
21031;DHT22;61072;47.808;7.636;2022-08-24T15:54:26;28.30;99.90
21031;DHT22;61072;47.808;7.636;2022-08-24T15:56:59;28.50;97.90
21031;DHT22;61072;47.808;7.636;2022-08-24T16:05:16;28.60;97.20
21031;DHT22;61072;47.808;7.636;2022-08-24T16:10:32;28.60;96.40
21031;DHT22;61072;47.808;7.636;2022-08-24T16:16:06;28.70;95.50
21031;DHT22;61072;47.808;7.636;2022-08-24T16:21:42;28.60;96.30
21031;DHT22;61072;47.808;7.636;2022-08-24T16:24:26;28.60;96.10
21031;DHT22;61072;47.808;7.636;2022-08-24T16:26:58;28.60;96.50
21031;DHT22;61072;47.808;7.636;2022-08-24T16:32:22;28.50;93.90
21031;DHT22;61072;47.808;7.636;2022-08-24T16:37:39;28.50;94.10
21031;DHT22;61072;47.808;7.636;2022-08-24T16:40:07;28.50;93.70
21031;DHT22;61072;47.808;7.636;2022-08-24T16:42:35;28.50;93.90
21031;DHT22;61072;47.808;7.636;2022-08-24T16:45:07;28.50;94.00
21031;DHT22;61072;47.808;7.636;2022-08-24T16:47:35;28.50;94.60
21031;DHT22;61072;47.808;7.636;2022-08-24T16:50:04;28.40;94.60
21031;DHT22;61072;47.808;7.636;2022-08-24T16:52:31;28.40;94.10
21031;DHT22;61072;47.808;7.636;2022-08-24T16:54:58;28.30;94.70
21031;DHT22;61072;47.808;7.636;2022-08-24T16:57:29;28.30;95.30
21031;DHT22;61072;47.808;7.636;2022-08-24T16:59:56;28.20;95.00
21031;DHT22;61072;47.808;7.636;2022-08-24T17:02:23;28.20;97.60
21031;DHT22;61072;47.808;7.636;2022-08-24T17:04:52;28.10;96.50
21031;DHT22;61072;47.808;7.636;2022-08-24T17:07:25;28.10;97.10
21031;DHT22;61072;47.808;7.636;2022-08-24T17:09:53;28.00;97.20
21031;DHT22;61072;47.808;7.636;2022-08-24T17:12:22;27.90;98.30
21031;DHT22;61072;47.808;7.636;2022-08-24T17:14:48;27.90;98.50
21031;DHT22;61072;47.808;7.636;2022-08-24T17:17:17;27.80;99.40
21031;DHT22;61072;47.808;7.636;2022-08-24T17:19:52;27.70;99.80
21031;DHT22;61072;47.808;7.636;2022-08-24T17:22:21;27.70;99.90
21031;DHT22;61072;47.808;7.636;2022-08-24T17:24:48;27.60;99.90
21031;DHT22;61072;47.808;7.636;2022-08-24T17:27:17;27.50;99.90
21031;DHT22;61072;47.808;7.636;2022-08-24T17:29:44;27.50;99.90
21031;DHT22;61072;47.808;7.636;2022-08-24T17:32:11;27.40;99.90
21031;DHT22;61072;47.808;7.636;2022-08-24T17:34:39;27.30;99.90
21031;DHT22;61072;47.808;7.636;2022-08-24T17:37:06;27.30;99.90
21031;DHT22;61072;47.808;7.636;2022-08-24T17:39:33;27.20;99.90
21031;DHT22;61072;47.808;7.636;2022-08-24T17:42:00;27.10;99.90
21031;DHT22;61072;47.808;7.636;2022-08-24T17:44:30;27.10;99.90
21031;DHT22;61072;47.808;7.636;2022-08-24T17:46:59;27.00;99.90
21031;DHT22;61072;47.808;7.636;2022-08-24T17:49:26;26.90;99.90
21031;DHT22;61072;47.808;7.636;2022-08-24T17:51:53;26.90;99.90
21031;DHT22;61072;47.808;7.636;2022-08-24T17:54:21;26.80;99.90
21031;DHT22;61072;47.808;7.636;2022-08-24T17:56:48;26.70;99.90
21031;DHT22;61072;47.808;7.636;2022-08-24T17:59:19;26.60;99.90
21031;DHT22;61072;47.808;7.636;2022-08-24T18:02:11;26.60;99.90
21031;DHT22;61072;47.808;7.636;2022-08-24T18:04:38;26.50;99.90
21031;DHT22;61072;47.808;7.636;2022-08-24T18:07:09;26.40;99.90
21031;DHT22;61072;47.808;7.636;2022-08-24T18:09:48;26.30;99.90
21031;DHT22;61072;47.808;7.636;2022-08-24T18:12:17;26.20;99.90
21031;DHT22;61072;47.808;7.636;2022-08-24T18:14:45;26.20;99.90
21031;DHT22;61072;47.808;7.636;2022-08-24T18:17:15;26.10;99.90
21031;DHT22;61072;47.808;7.636;2022-08-24T18:19:49;26.00;99.90
21031;DHT22;61072;47.808;7.636;2022-08-24T18:22:18;25.90;99.90
21031;DHT22;61072;47.808;7.636;2022-08-24T18:24:45;25.90;99.90
21031;DHT22;61072;47.808;7.636;2022-08-24T18:27:22;25.80;99.90
21031;DHT22;61072;47.808;7.636;2022-08-24T18:29:58;25.60;99.90
21031;DHT22;61072;47.808;7.636;2022-08-24T18:32:28;25.60;99.90
21031;DHT22;61072;47.808;7.636;2022-08-24T18:34:57;25.50;99.90
21031;DHT22;61072;47.808;7.636;2022-08-24T18:37:24;25.40;99.90
21031;DHT22;61072;47.808;7.636;2022-08-24T18:39:51;25.30;99.90
21031;DHT22;61072;47.808;7.636;2022-08-24T18:42:18;25.30;99.90
21031;DHT22;61072;47.808;7.636;2022-08-24T18:44:45;25.20;99.90
21031;DHT22;61072;47.808;7.636;2022-08-24T18:47:12;25.20;99.90
21031;DHT22;61072;47.808;7.636;2022-08-24T18:49:39;25.10;99.90
21031;DHT22;61072;47.808;7.636;2022-08-24T18:52:08;25.00;99.90
21031;DHT22;61072;47.808;7.636;2022-08-24T18:54:38;24.90;99.90
21031;DHT22;61072;47.808;7.636;2022-08-24T18:57:06;24.80;99.90
21031;DHT22;61072;47.808;7.636;2022-08-24T18:59:35;24.70;99.90
21031;DHT22;61072;47.808;7.636;2022-08-24T19:02:17;24.70;99.90
21031;DHT22;61072;47.808;7.636;2022-08-24T19:05:17;24.60;99.90
21031;DHT22;61072;47.808;7.636;2022-08-24T19:07:47;24.50;99.90
21031;DHT22;61072;47.808;7.636;2022-08-24T19:10:17;24.40;99.90
21031;DHT22;61072;47.808;7.636;2022-08-24T19:12:47;24.30;99.90
21031;DHT22;61072;47.808;7.636;2022-08-24T19:15:16;24.40;99.90
21031;DHT22;61072;47.808;7.636;2022-08-24T19:18:03;24.30;99.90
21031;DHT22;61072;47.808;7.636;2022-08-24T19:20:32;24.30;99.90
21031;DHT22;61072;47.808;7.636;2022-08-24T19:23:08;24.30;99.90
21031;DHT22;61072;47.808;7.636;2022-08-24T19:25:36;24.20;99.90
21031;DHT22;61072;47.808;7.636;2022-08-24T19:28:06;24.20;99.90